.
WxDataArchive / Data Records for 2009-10-12
2009-10-11 October 2009 2009-10-13

Data Records for Monday, 12 October 2009

Time	Temp	Chill	HIndex	Humid	Dewpt	 Wind 	HiWind	WindDir	Rain 	Barom 
-----	----	-----	------	-----	-----	------	------	-------	-----	----- 
00:00	42.9	42.9	42.9	78	36.5	0	0	---	0.00	30.331 
00:05	42.8	42.8	42.8	78	36.4	0	0	---	0.00	30.331 
00:10	42.8	42.8	42.8	77	36.1	0	0	---	0.00	30.331 
00:15	42.6	42.6	42.6	77	35.9	0	0	---	0.00	30.332 
00:20	42.5	42.5	42.5	77	35.8	0	0	---	0.00	30.332 
00:25	42.5	42.5	42.5	77	35.8	0	0	---	0.00	30.332 
00:30	42.3	42.3	42.3	78	35.9	0	0	---	0.00	30.334 
00:35	42.3	42.3	42.3	78	35.9	0	0	---	0.00	30.334 
00:40	42.3	42.3	42.3	78	35.9	0	0	---	0.00	30.334 
00:45	42.3	42.3	42.3	78	35.9	0	0	---	0.00	30.335 
00:50	42.3	42.3	42.3	78	35.9	0	0	---	0.00	30.335 
00:55	42.3	42.3	42.3	78	35.9	0	0	---	0.00	30.335 
01:00	42.2	42.2	42.2	78	35.8	0	1	270	0.00	30.331 
01:05	42.2	42.2	42.2	78	35.8	0	0	---	0.00	30.331 
01:10	42.2	42.2	42.2	78	35.8	0	0	---	0.00	30.331 
01:15	42.2	42.2	42.2	78	35.8	0	0	---	0.00	30.323 
01:20	42.2	42.2	42.2	78	35.8	0	0	---	0.00	30.323 
01:25	42.1	42.1	42.1	78	35.7	0	0	---	0.00	30.323 
01:30	42.1	42.1	42.1	77	35.4	0	0	---	0.00	30.317 
01:35	41.8	41.8	41.8	77	35.1	0	0	---	0.00	30.317 
01:40	41.6	41.6	41.6	76	34.6	0	0	---	0.00	30.317 
01:45	41.3	41.3	41.3	76	34.3	0	0	---	0.00	30.319 
01:50	41.2	41.2	41.2	77	34.5	0	0	---	0.00	30.319 
01:55	41.1	41.1	41.1	77	34.4	0	0	---	0.00	30.319 
02:00	40.9	40.9	40.9	78	34.6	0	0	---	0.00	30.317 
02:05	40.8	40.8	40.8	79	34.8	0	0	---	0.00	30.317 
02:10	40.8	40.8	40.8	80	35.1	0	0	---	0.00	30.317 
02:15	40.8	40.8	40.8	80	35.1	0	0	---	0.00	30.316 
02:20	40.9	40.9	40.9	80	35.2	0	1	270	0.00	30.316 
02:25	41.1	41.1	41.1	80	35.4	0	0	---	0.00	30.316 
02:30	41.1	41.1	41.1	77	34.4	0	0	---	0.00	30.318 
02:35	41.2	41.2	41.2	77	34.5	0	1	270	0.00	30.318 
02:40	41.2	41.2	41.2	77	34.5	0	1	270	0.00	30.318 
02:45	41.3	41.3	41.3	76	34.3	0	1	270	0.00	30.307 
02:50	41.3	41.3	41.3	76	34.3	0	1	270	0.00	30.307 
02:55	41.3	41.3	41.3	77	34.6	0	1	270	0.00	30.307 
03:00	41.3	41.3	41.3	77	34.6	0	0	---	0.00	30.318 
03:05	41.3	41.3	41.3	77	34.6	0	0	---	0.00	30.318 
03:10	41.3	41.3	41.3	76	34.3	0	2	270	0.00	30.318 
03:15	41.5	41.5	41.5	77	34.8	0	1	270	0.00	30.312 
03:20	41.5	41.5	41.5	77	34.8	0	0	---	0.00	30.312 
03:25	41.3	41.3	41.3	77	34.6	0	1	270	0.00	30.312 
03:30	41.3	41.3	41.3	78	35.0	0	1	270	0.00	30.313 
03:35	41.3	41.3	41.3	78	35.0	0	0	---	0.00	30.313 
03:40	41.5	41.5	41.5	79	35.5	0	0	---	0.00	30.313 
03:45	41.5	41.5	41.5	79	35.5	0	1	270	0.00	30.312 
03:50	41.5	41.5	41.5	79	35.5	0	0	---	0.00	30.312 
03:55	41.5	41.5	41.5	79	35.5	0	0	---	0.00	30.312 
04:00	41.3	41.3	41.3	79	35.3	0	0	---	0.00	30.304 
04:05	41.3	41.3	41.3	79	35.3	0	3	270	0.00	30.304 
04:10	41.3	41.3	41.3	79	35.3	0	1	112	0.00	30.304 
04:15	41.3	41.3	41.3	79	35.3	0	2	112	0.00	30.303 
04:20	41.3	41.3	41.3	79	35.3	0	3	112	0.00	30.303 
04:25	41.3	41.3	41.3	80	35.6	0	1	112	0.00	30.303 
04:30	41.3	41.3	41.3	80	35.6	0	0	---	0.00	30.299 
04:35	41.2	41.2	41.2	81	35.8	0	0	---	0.00	30.299 
04:40	41.2	41.2	41.2	81	35.8	0	1	112	0.00	30.299 
04:45	41.2	41.2	41.2	81	35.8	0	2	112	0.00	30.293 
04:50	41.2	41.2	41.2	81	35.8	1	3	112	0.00	30.293 
04:55	41.1	41.1	41.1	82	36.0	0	0	---	0.00	30.293 
05:00	41.1	41.1	41.1	82	36.0	0	2	112	0.00	30.291 
05:05	41.1	41.1	41.1	82	36.0	0	3	112	0.00	30.291 
05:10	41.1	41.1	41.1	82	36.0	0	2	112	0.00	30.291 
05:15	40.9	40.9	40.9	82	35.8	0	2	112	0.00	30.297 
05:20	40.9	40.9	40.9	83	36.1	0	2	112	0.00	30.297 
05:25	40.9	40.9	40.9	83	36.1	1	3	112	0.00	30.297 
05:30	40.9	40.9	40.9	83	36.1	0	2	112	0.00	30.299 
05:35	40.9	40.9	40.9	83	36.1	0	2	112	0.00	30.299 
05:40	41.1	41.1	41.1	84	36.6	0	1	112	0.00	30.299 
05:45	41.1	41.1	41.1	84	36.6	0	1	112	0.00	30.301 
05:50	41.1	41.1	41.1	84	36.6	0	1	112	0.00	30.301 
05:55	40.9	40.9	40.9	84	36.4	0	1	112	0.00	30.301 
06:00	40.9	40.9	40.9	84	36.4	0	1	112	0.00	30.301 
06:05	41.1	41.1	41.1	84	36.6	0	1	112	0.00	30.301 
06:10	40.9	40.9	40.9	84	36.4	0	1	112	0.00	30.301 
06:15	40.9	40.9	40.9	83	36.1	0	3	112	0.00	30.294 
06:20	40.9	40.9	40.9	83	36.1	0	2	112	0.00	30.294 
06:25	40.9	40.9	40.9	83	36.1	1	2	112	0.00	30.294 
06:30	40.9	40.9	40.9	82	35.8	1	3	112	0.00	30.285 
06:35	40.9	40.9	40.9	82	35.8	0	1	112	0.00	30.285 
06:40	40.9	40.9	40.9	81	35.5	1	3	112	0.00	30.285 
06:45	41.1	41.1	41.1	81	35.7	0	2	90	0.00	30.287 
06:50	41.1	41.1	41.1	81	35.7	1	4	90	0.00	30.287 
06:55	41.2	41.2	41.2	81	35.8	0	2	90	0.00	30.287 
07:00	41.2	41.2	41.2	80	35.5	0	1	90	0.00	30.286 
07:05	41.2	41.2	41.2	80	35.5	1	3	90	0.00	30.286 
07:10	41.3	41.3	41.3	80	35.6	1	4	90	0.00	30.286 
07:15	41.3	41.3	41.3	80	35.6	1	3	90	0.00	30.285 
07:20	41.3	41.3	41.3	80	35.6	0	1	90	0.00	30.285 
07:25	41.3	41.3	41.3	81	35.9	0	0	---	0.00	30.285 
07:30	41.3	41.3	41.3	81	35.9	0	0	---	0.00	30.291 
07:35	41.2	41.2	41.2	81	35.8	0	1	90	0.00	30.291 
07:40	41.3	41.3	41.3	81	35.9	0	2	90	0.00	30.291 
07:45	41.3	41.3	41.3	81	35.9	0	2	90	0.00	30.274 
07:50	41.3	41.3	41.3	81	35.9	0	2	90	0.00	30.274 
07:55	41.3	41.3	41.3	82	36.2	1	3	90	0.01	30.274 
08:00	41.2	41.2	41.2	83	36.4	2	4	90	0.00	30.240 
08:05	41.1	41.1	41.1	84	36.6	2	5	90	0.00	30.240 
08:10	40.9	40.9	40.9	84	36.4	1	3	90	0.00	30.240 
08:15	40.9	40.9	40.9	84	36.4	0	1	90	0.00	30.268 
08:20	40.9	40.9	40.9	84	36.4	0	1	90	0.00	30.268 
08:25	40.9	40.9	40.9	84	36.4	0	2	90	0.00	30.268 
08:30	40.9	40.9	40.9	84	36.4	0	1	90	0.00	30.274 
08:35	41.1	41.1	41.1	83	36.3	0	3	90	0.00	30.274 
08:40	41.2	41.2	41.2	82	36.1	0	2	90	0.00	30.274 
08:45	41.2	41.2	41.2	82	36.1	0	2	90	0.00	30.277 
08:50	41.3	41.3	41.3	82	36.2	0	2	90	0.00	30.277 
08:55	41.3	41.3	41.3	82	36.2	1	3	90	0.00	30.277 
09:00	41.3	41.3	41.3	81	35.9	0	2	90	0.00	30.281 
09:05	41.3	41.3	41.3	81	35.9	1	3	90	0.00	30.281 
09:10	41.3	41.3	41.3	81	35.9	1	4	68	0.00	30.281 
09:15	41.3	41.3	41.3	83	36.5	1	2	68	0.01	30.272 
09:20	41.2	41.2	41.2	84	36.7	1	4	90	0.01	30.272 
09:25	41.1	41.1	41.1	84	36.6	1	4	90	0.00	30.272 
09:30	40.9	40.9	40.9	85	36.7	1	3	68	0.01	30.269 
09:35	40.8	40.8	40.8	85	36.6	1	3	68	0.00	30.269 
09:40	40.8	40.8	40.8	86	36.9	2	5	68	0.01	30.269 
09:45	40.8	40.8	40.8	87	37.2	1	5	112	0.00	30.249 
09:50	40.8	40.8	40.8	88	37.5	1	3	112	0.01	30.249 
09:55	40.8	40.8	40.8	88	37.5	0	3	90	0.00	30.249 
10:00	40.9	40.9	40.9	88	37.6	0	2	90	0.00	30.257 
10:05	41.1	41.1	41.1	88	37.8	1	3	90	0.00	30.257 
10:10	41.2	41.2	41.2	88	37.9	1	2	90	0.00	30.257 
10:15	41.5	41.5	41.5	88	38.2	0	2	68	0.00	30.250 
10:20	41.6	41.6	41.6	87	38.0	1	4	68	0.00	30.250 
10:25	41.6	41.6	41.6	87	38.0	1	3	68	0.00	30.250 
10:30	41.6	41.6	41.6	86	37.7	1	3	68	0.00	30.256 
10:35	41.8	41.8	41.8	86	37.9	0	4	68	0.00	30.256 
10:40	41.9	41.9	41.9	84	37.4	2	4	90	0.00	30.256 
10:45	42.2	42.2	42.2	85	38.0	1	3	90	0.00	30.240 
10:50	42.6	42.6	42.6	84	38.1	1	4	90	0.00	30.240 
10:55	43.1	43.1	43.1	84	38.6	2	4	90	0.00	30.240 
11:00	43.3	43.3	43.3	81	37.9	3	6	90	0.00	30.237 
11:05	43.3	43.3	43.3	80	37.6	2	6	90	0.00	30.237 
11:10	43.3	43.3	43.3	80	37.6	2	4	90	0.00	30.237 
11:15	43.5	43.5	43.5	80	37.7	1	4	90	0.00	30.237 
11:20	43.6	43.6	43.6	79	37.5	1	4	90	0.00	30.237 
11:25	43.8	43.8	43.8	78	37.4	2	6	90	0.00	30.237 
11:30	43.9	43.9	43.9	80	38.1	1	4	90	0.00	30.224 
11:35	43.9	43.9	43.9	80	38.1	1	5	112	0.00	30.224 
11:40	44.1	44.1	44.1	80	38.3	1	4	90	0.00	30.224 
11:45	44.1	44.1	44.1	81	38.6	1	4	90	0.00	30.223 
11:50	43.9	43.9	43.9	77	37.2	2	4	68	0.00	30.223 
11:55	44.2	44.2	44.2	78	37.8	1	3	68	0.00	30.223 
12:00	44.5	44.5	44.5	78	38.1	1	3	112	0.00	30.222 
12:05	44.8	44.8	44.8	79	38.7	1	2	112	0.00	30.222 
12:10	44.9	44.9	44.9	78	38.5	2	4	112	0.00	30.222 
12:15	45.1	45.1	45.1	77	38.3	1	4	90	0.00	30.223 
12:20	45.1	45.1	45.1	78	38.7	2	5	90	0.00	30.223 
12:25	45.2	45.2	45.2	79	39.1	1	4	68	0.00	30.223 
12:30	45.2	45.2	45.2	80	39.4	1	4	90	0.00	30.220 
12:35	45.5	45.5	45.5	81	40.0	0	4	90	0.00	30.220 
12:40	45.4	45.4	45.4	78	38.9	1	3	90	0.00	30.220 
12:45	45.5	45.5	45.5	80	39.7	0	3	90	0.00	30.225 
12:50	45.7	45.7	45.7	79	39.6	1	3	90	0.00	30.225 
12:55	45.8	45.8	45.8	77	39.0	1	3	90	0.00	30.225 
13:00	45.8	45.8	45.8	76	38.7	1	4	112	0.00	30.224 
13:05	46.0	46.0	46.0	78	39.5	1	3	90	0.00	30.224 
13:10	46.1	46.1	46.1	79	40.0	0	0	---	0.00	30.224 
13:15	46.1	46.1	46.1	78	39.6	1	2	90	0.00	30.232 
13:20	46.1	46.1	46.1	78	39.6	1	3	90	0.00	30.232 
13:25	46.2	46.2	46.2	81	40.7	0	2	90	0.00	30.232 
13:30	46.2	46.2	46.2	79	40.1	1	3	90	0.00	30.224 
13:35	46.1	46.1	46.1	79	40.0	1	2	90	0.00	30.224 
13:40	46.2	46.2	46.2	79	40.1	0	2	90	0.00	30.224 
13:45	46.2	46.2	46.2	78	39.7	1	2	90	0.00	30.219 
13:50	46.2	46.2	46.2	80	40.4	0	1	90	0.00	30.219 
13:55	46.2	46.2	46.2	80	40.4	0	2	90	0.00	30.219 
14:00	46.4	46.4	46.4	81	40.9	0	2	112	0.00	30.206 
14:05	46.4	46.4	46.4	79	40.2	0	1	112	0.00	30.206 
14:10	46.4	46.4	46.4	80	40.6	0	2	112	0.00	30.206 
14:15	46.2	46.2	46.2	78	39.7	1	3	112	0.00	30.200 
14:20	46.2	46.2	46.2	79	40.1	0	1	112	0.00	30.200 
14:25	46.2	46.2	46.2	79	40.1	0	2	112	0.00	30.200 
14:30	46.2	46.2	46.2	79	40.1	0	1	112	0.00	30.190 
14:35	46.2	46.2	46.2	80	40.4	0	2	112	0.00	30.190 
14:40	46.2	46.2	46.2	80	40.4	0	1	112	0.00	30.190 
14:45	46.4	46.4	46.4	80	40.6	0	3	158	0.00	30.180 
14:50	46.5	46.5	46.5	79	40.3	1	2	90	0.00	30.180 
14:55	46.5	46.5	46.5	80	40.7	0	2	90	0.00	30.180 
15:00	46.5	46.5	46.5	81	41.0	0	1	90	0.00	30.163 
15:05	46.7	46.7	46.7	81	41.2	0	3	90	0.00	30.163 
15:10	46.7	46.7	46.7	82	41.5	0	3	90	0.00	30.163 
15:15	46.5	46.5	46.5	82	41.3	1	4	90	0.00	30.159 
15:20	46.5	46.5	46.5	83	41.6	0	3	90	0.00	30.159 
15:25	46.4	46.4	46.4	84	41.8	1	4	90	0.00	30.159 
15:30	46.4	46.4	46.4	83	41.5	1	3	90	0.00	30.160 
15:35	46.2	46.2	46.2	82	41.0	0	2	90	0.00	30.160 
15:40	46.2	46.2	46.2	83	41.3	0	1	90	0.00	30.160 
15:45	46.2	46.2	46.2	84	41.6	1	2	90	0.00	30.153 
15:50	46.2	46.2	46.2	83	41.3	0	2	90	0.01	30.153 
15:55	46.1	46.1	46.1	84	41.5	1	3	90	0.00	30.153 
16:00	46.0	46.0	46.0	85	41.7	1	3	90	0.00	30.147 
16:05	45.8	45.8	45.8	85	41.6	1	3	135	0.00	30.147 
16:10	45.7	45.7	45.7	85	41.5	1	3	112	0.00	30.147 
16:15	45.5	45.5	45.5	85	41.3	1	4	90	0.00	30.136 
16:20	45.5	45.5	45.5	86	41.6	1	3	90	0.00	30.136 
16:25	45.7	45.7	45.7	87	42.1	1	3	90	0.01	30.136 
16:30	45.7	45.7	45.7	88	42.4	1	4	90	0.00	30.135 
16:35	45.5	45.5	45.5	87	41.9	1	3	112	0.00	30.135 
16:40	45.4	45.4	45.4	87	41.8	1	4	68	0.00	30.135 
16:45	45.4	45.4	45.4	86	41.5	1	3	112	0.00	30.143 
16:50	45.4	45.4	45.4	87	41.8	1	4	112	0.00	30.143 
16:55	45.5	45.5	45.5	87	41.9	0	1	112	0.00	30.143 
17:00	45.5	45.5	45.5	87	41.9	1	4	90	0.00	30.133 
17:05	45.7	45.7	45.7	87	42.1	1	4	90	0.00	30.133 
17:10	45.7	45.7	45.7	87	42.1	1	3	90	0.00	30.133 
17:15	45.7	45.7	45.7	86	41.8	2	4	90	0.00	30.129 
17:20	45.7	45.7	45.7	87	42.1	1	3	90	0.00	30.129 
17:25	45.8	45.8	45.8	87	42.2	1	3	112	0.00	30.129 
17:30	45.8	45.8	45.8	87	42.2	0	3	68	0.00	30.131 
17:35	45.8	45.8	45.8	87	42.2	1	4	68	0.00	30.131 
17:40	45.8	45.8	45.8	86	41.9	1	4	90	0.00	30.131 
17:45	45.8	45.8	45.8	86	41.9	1	3	90	0.00	30.130 
17:50	45.8	45.8	45.8	87	42.2	0	1	90	0.00	30.130 
17:55	45.7	45.7	45.7	85	41.5	2	5	90	0.00	30.130 
18:00	45.7	45.7	45.7	85	41.5	1	4	112	0.00	30.122 
18:05	45.7	45.7	45.7	86	41.8	0	2	90	0.00	30.122 
18:10	45.7	45.7	45.7	86	41.8	1	4	90	0.00	30.122 
18:15	45.7	45.7	45.7	86	41.8	0	2	112	0.00	30.126 
18:20	45.7	45.7	45.7	86	41.8	1	4	112	0.00	30.126 
18:25	45.5	45.5	45.5	86	41.6	1	3	112	0.00	30.126 
18:30	45.7	45.7	45.7	86	41.8	0	2	112	0.00	30.124 
18:35	45.7	45.7	45.7	86	41.8	0	1	112	0.00	30.124 
18:40	45.7	45.7	45.7	87	42.1	0	1	112	0.00	30.124 
18:45	45.7	45.7	45.7	87	42.1	0	1	112	0.00	30.130 
18:50	45.5	45.5	45.5	87	41.9	0	0	---	0.00	30.130 
18:55	45.5	45.5	45.5	87	41.9	0	1	112	0.00	30.130 
19:00	45.5	45.5	45.5	87	41.9	0	1	112	0.00	30.131 
19:05	45.5	45.5	45.5	88	42.2	0	0	---	0.00	30.131 
19:10	45.5	45.5	45.5	88	42.2	0	1	112	0.00	30.131 
19:15	45.5	45.5	45.5	88	42.2	0	0	---	0.00	30.129 
19:20	45.5	45.5	45.5	88	42.2	0	2	112	0.00	30.129 
19:25	45.4	45.4	45.4	88	42.1	0	1	112	0.00	30.129 
19:30	45.4	45.4	45.4	88	42.1	0	2	112	0.00	30.127 
19:35	45.4	45.4	45.4	88	42.1	0	1	112	0.00	30.127 
19:40	45.4	45.4	45.4	88	42.1	0	2	112	0.00	30.127 
19:45	45.4	45.4	45.4	88	42.1	0	1	112	0.00	30.127 
19:50	45.2	45.2	45.2	88	41.9	0	1	112	0.00	30.127 
19:55	45.2	45.2	45.2	88	41.9	0	1	112	0.00	30.127 
20:00	45.2	45.2	45.2	88	41.9	0	2	112	0.00	30.133 
20:05	45.2	45.2	45.2	88	41.9	0	1	112	0.00	30.133 
20:10	45.2	45.2	45.2	88	41.9	0	1	112	0.00	30.133 
20:15	45.2	45.2	45.2	89	42.2	0	0	---	0.00	30.131 
20:20	45.2	45.2	45.2	89	42.2	0	1	112	0.00	30.131 
20:25	45.2	45.2	45.2	89	42.2	0	0	---	0.00	30.131 
20:30	45.2	45.2	45.2	89	42.2	0	0	---	0.00	30.133 
20:35	45.2	45.2	45.2	89	42.2	0	1	112	0.00	30.133 
20:40	45.2	45.2	45.2	89	42.2	0	1	112	0.00	30.133 
20:45	45.1	45.1	45.1	89	42.1	0	0	---	0.00	30.139 
20:50	45.1	45.1	45.1	89	42.1	0	0	---	0.00	30.139 
20:55	45.1	45.1	45.1	89	42.1	0	0	---	0.00	30.139 
21:00	45.1	45.1	45.1	89	42.1	0	1	112	0.00	30.137 
21:05	45.2	45.2	45.2	89	42.2	0	0	---	0.00	30.137 
21:10	45.2	45.2	45.2	89	42.2	0	0	---	0.00	30.137 
21:15	45.2	45.2	45.2	89	42.2	0	0	---	0.00	30.135 
21:20	45.1	45.1	45.1	89	42.1	0	0	---	0.00	30.135 
21:25	45.1	45.1	45.1	89	42.1	0	0	---	0.00	30.135 
21:30	45.1	45.1	45.1	89	42.1	0	0	---	0.00	30.134 
21:35	45.1	45.1	45.1	89	42.1	0	0	---	0.00	30.134 
21:40	45.2	45.2	45.2	90	42.4	0	0	---	0.00	30.134 
21:45	45.2	45.2	45.2	90	42.4	0	0	---	0.00	30.134 
21:50	45.2	45.2	45.2	90	42.4	0	0	---	0.00	30.134 
21:55	45.2	45.2	45.2	90	42.4	0	0	---	0.00	30.134 
22:00	45.1	45.1	45.1	90	42.3	0	0	---	0.00	30.137 
22:05	45.1	45.1	45.1	90	42.3	0	0	---	0.00	30.137 
22:10	45.1	45.1	45.1	90	42.3	0	0	---	0.00	30.137 
22:15	45.1	45.1	45.1	90	42.3	0	0	---	0.00	30.132 
22:20	45.1	45.1	45.1	90	42.3	0	0	---	0.00	30.132 
22:25	45.1	45.1	45.1	90	42.3	0	0	---	0.00	30.132 
22:30	45.1	45.1	45.1	90	42.3	0	0	---	0.00	30.130 
22:35	45.1	45.1	45.1	90	42.3	0	0	---	0.00	30.130 
22:40	45.1	45.1	45.1	90	42.3	0	0	---	0.00	30.130 
22:45	45.1	45.1	45.1	90	42.3	0	0	---	0.00	30.128 
22:50	45.1	45.1	45.1	90	42.3	0	0	---	0.00	30.128 
22:55	45.1	45.1	45.1	90	42.3	0	0	---	0.00	30.128 
23:00	45.1	45.1	45.1	91	42.6	0	0	---	0.00	30.126 
23:05	45.1	45.1	45.1	90	42.3	0	0	---	0.00	30.126 
23:10	45.1	45.1	45.1	91	42.6	0	0	---	0.00	30.126 
23:15	45.1	45.1	45.1	91	42.6	0	0	---	0.00	30.123 
23:20	45.1	45.1	45.1	91	42.6	0	0	---	0.00	30.123 
23:25	45.2	45.2	45.2	91	42.7	0	0	---	0.00	30.123 
23:30	45.2	45.2	45.2	91	42.7	0	0	---	0.00	30.124 
23:35	45.2	45.2	45.2	91	42.7	0	0	---	0.00	30.124 
23:40	45.2	45.2	45.2	91	42.7	0	0	---	0.00	30.124 
23:45	45.2	45.2	45.2	91	42.7	0	0	---	0.00	30.126 
23:50	45.2	45.2	45.2	91	42.7	0	0	---	0.00	30.126 
23:55	45.2	45.2	45.2	91	42.7	0	0	---	0.00	30.126 

CoCoRaHS
IN-AL-39
A2 Web Hosting
Creative Commons License
GoDaddy
search engine by freefind advanced

loaded 2018-11-17 06:02:07 • last modified 2010-11-18 10:43:29
Privacy PolicyDisclaimer
• wx.awcolley.com is powered by PmWiki v.2002016 •
• all content (unless otherwise noted) © 2018 A W Colley